Corvallis Municipal Airport


Codes: KCVO/CVO
Name: Corvallis Municipal Airport
City: Corvallis
Country: United States
Elevation: 250 ft.
Website:
Wikipedia:

Photos at Corvallis Municipal Airport


   Photos courtesy of SpottingLog. You can add your own sightings and photos by signing up for a free trial today.



No photos found.

Weather at Corvallis Municipal Airport


Time (UTC)DescriptionTempratureWindCloud coverageVisibilityPressureHumidity
17-Jun-2024 06:00Light Rain9°C4 mph, W75%10000m1017hPa87%
17-Jun-2024 09:00Broken Clouds8°C4 mph, W51%10000m1018hPa90%
17-Jun-2024 12:00Scattered Clouds6°C2 mph, SW27%10000m1018hPa93%
17-Jun-2024 15:00Broken Clouds8°C4 mph, S73%10000m1020hPa95%
17-Jun-2024 18:00Overcast Clouds11°C4 mph, S86%10000m1020hPa81%
17-Jun-2024 21:00Light Rain15°C4 mph, SW99%10000m1020hPa65%
18-Jun-2024 00:00Overcast Clouds17°C7 mph, NW92%10000m1019hPa53%
18-Jun-2024 03:00Few Clouds14°C9 mph, W24%10000m1018hPa63%
18-Jun-2024 06:00Few Clouds8°C4 mph, NW13%10000m1019hPa93%
18-Jun-2024 09:00Few Clouds6°C2 mph, NW16%10000m1019hPa95%
18-Jun-2024 12:00Clear Sky5°C2 mph, NW9%10000m1018hPa95%
18-Jun-2024 15:00Clear Sky10°C4 mph, NE0%10000m1018hPa83%
18-Jun-2024 18:00Clear Sky16°C7 mph, NE0%10000m1016hPa56%
18-Jun-2024 21:00Clear Sky20°C7 mph, NE0%10000m1015hPa45%
19-Jun-2024 00:00Few Clouds21°C7 mph, NE15%10000m1013hPa43%
19-Jun-2024 03:00Overcast Clouds17°C4 mph, NW97%10000m1013hPa70%
19-Jun-2024 06:00Broken Clouds11°C4 mph, NW78%10000m1014hPa86%
19-Jun-2024 09:00Scattered Clouds9°C2 mph, NW26%10000m1014hPa91%
19-Jun-2024 12:00Few Clouds8°C2 mph, N15%10000m1014hPa93%
19-Jun-2024 15:00Clear Sky14°C4 mph, NE0%10000m1014hPa75%
19-Jun-2024 18:00Clear Sky20°C7 mph, NE0%10000m1013hPa55%
19-Jun-2024 21:00Clear Sky25°C7 mph, NE0%10000m1011hPa41%
20-Jun-2024 00:00Clear Sky26°C4 mph, N2%10000m1010hPa40%
20-Jun-2024 03:00Clear Sky20°C7 mph, NW9%10000m1010hPa65%
20-Jun-2024 06:00Scattered Clouds13°C4 mph, NW30%10000m1012hPa83%
20-Jun-2024 09:00Broken Clouds11°C4 mph, NW83%10000m1012hPa86%
20-Jun-2024 12:00Broken Clouds11°C2 mph, NW55%10000m1012hPa86%
20-Jun-2024 15:00Overcast Clouds15°C0 mph, NE100%10000m1013hPa71%
20-Jun-2024 18:00Overcast Clouds20°C4 mph, NE100%10000m1012hPa60%
20-Jun-2024 21:00Overcast Clouds24°C4 mph, NE100%10000m1011hPa47%
21-Jun-2024 00:00Overcast Clouds26°C4 mph, N99%10000m1009hPa44%
21-Jun-2024 03:00Overcast Clouds19°C4 mph, NW87%10000m1010hPa73%
21-Jun-2024 06:00Scattered Clouds13°C4 mph, W43%10000m1012hPa85%
21-Jun-2024 09:00Clear Sky11°C4 mph, W0%10000m1012hPa89%
21-Jun-2024 12:00Clear Sky11°C2 mph, W2%10000m1013hPa89%
21-Jun-2024 15:00Scattered Clouds16°C0 mph, W38%10000m1014hPa71%
21-Jun-2024 18:00Broken Clouds22°C2 mph, NE70%10000m1013hPa55%
21-Jun-2024 21:00Few Clouds27°C4 mph, NE15%10000m1011hPa43%
22-Jun-2024 00:00Scattered Clouds26°C9 mph, NW36%10000m1010hPa45%
22-Jun-2024 03:00Few Clouds19°C7 mph, NW19%10000m1011hPa60%